Time;durP1;ratioP1;P1;durP2;ratioP2;P2;SDS_P1;SDS_P2;PMS_P1;PMS_P2;Temp;Humidity;BMP_temperature;BMP_pressure;BME280_temperature;BME280_humidity;BME280_pressure;Samples;Min_cycle;Max_cycle;Signal;HPM_P1;HPM_P2
2023/08/13 00:01:21;;;;;;;9.53;2.80;;;16.60;99.90;;;;;;5008620;28;21034;-66
2023/08/13 00:03:51;;;;;;;6.47;2.80;;;16.50;99.90;;;;;;5006032;28;20556;-66
2023/08/13 00:06:20;;;;;;;13.33;2.80;;;16.50;99.90;;;;;;5008529;28;20539;-66
2023/08/13 00:08:48;;;;;;;13.67;2.93;;;16.50;99.90;;;;;;5014208;28;20361;-66
2023/08/13 00:11:17;;;;;;;3.87;2.60;;;16.40;99.90;;;;;;5010116;28;21160;-66
2023/08/13 00:13:45;;;;;;;7.30;2.60;;;16.40;99.90;;;;;;5007173;28;20225;-66
2023/08/13 00:16:13;;;;;;;10.97;3.03;;;16.40;99.90;;;;;;5011918;28;20242;-66
2023/08/13 00:18:42;;;;;;;8.63;2.70;;;16.30;99.90;;;;;;5007819;28;20197;-66
2023/08/13 00:21:12;;;;;;;9.03;2.93;;;16.30;99.90;;;;;;5007902;28;20297;-66
2023/08/13 00:23:40;;;;;;;6.90;2.43;;;16.20;99.90;;;;;;5007959;28;20245;-66
2023/08/13 00:26:08;;;;;;;7.93;2.83;;;16.20;99.90;;;;;;5005154;28;20217;-66
2023/08/13 00:28:37;;;;;;;7.13;2.30;;;16.10;99.90;;;;;;4991601;28;20291;-65
2023/08/13 00:31:05;;;;;;;9.63;2.63;;;16.10;99.90;;;;;;5010098;28;20189;-65
2023/08/13 00:33:33;;;;;;;6.43;2.67;;;16.00;99.90;;;;;;5008928;28;20206;-65
2023/08/13 00:36:01;;;;;;;11.57;3.10;;;16.00;99.90;;;;;;5008652;28;20221;-65
2023/08/13 00:38:31;;;;;;;7.80;3.20;;;16.00;99.90;;;;;;5003707;28;20293;-65
2023/08/13 00:41:00;;;;;;;9.83;3.10;;;16.00;99.90;;;;;;5000334;28;20317;-65
2023/08/13 00:43:28;;;;;;;15.80;3.67;;;15.90;99.90;;;;;;5005105;28;20257;-65
2023/08/13 00:45:56;;;;;;;8.23;2.70;;;15.90;99.90;;;;;;4991936;28;20200;-64
2023/08/13 00:48:26;;;;;;;5.30;2.67;;;15.90;99.90;;;;;;5008032;28;20198;-65
2023/08/13 00:50:55;;;;;;;9.17;2.80;;;15.90;99.90;;;;;;5006970;28;20276;-65
2023/08/13 00:53:24;;;;;;;9.20;3.40;;;15.90;99.90;;;;;;5004077;28;20251;-65
2023/08/13 00:55:54;;;;;;;9.90;3.30;;;15.90;99.90;;;;;;5006927;28;20308;-65
2023/08/13 00:58:22;;;;;;;13.63;3.40;;;15.90;99.90;;;;;;5004214;28;20235;-66
2023/08/13 01:00:50;;;;;;;11.73;3.10;;;16.00;99.90;;;;;;5004888;28;20529;-66
2023/08/13 01:03:19;;;;;;;7.90;2.70;;;15.90;99.90;;;;;;5007045;28;20208;-66
2023/08/13 01:05:54;;;;;;;7.37;2.73;;;15.90;99.90;;;;;;5006163;28;20225;-65
2023/08/13 01:08:33;;;;;;;11.57;2.80;;;15.90;99.90;;;;;;5010362;28;20228;-65
2023/08/13 01:11:10;;;;;;;9.13;2.90;;;15.80;99.90;;;;;;5009237;28;20306;-66
2023/08/13 01:13:44;;;;;;;8.43;2.90;;;15.80;99.90;;;;;;5008386;28;20223;-66
2023/08/13 01:16:15;;;;;;;9.67;3.10;;;15.70;99.90;;;;;;5009816;28;20672;-65
2023/08/13 01:18:45;;;;;;;7.33;2.90;;;15.70;99.90;;;;;;5004708;28;20213;-65
2023/08/13 01:21:13;;;;;;;5.40;2.80;;;15.70;99.90;;;;;;5007045;28;20224;-65
2023/08/13 01:23:43;;;;;;;10.20;3.37;;;15.70;99.90;;;;;;4993663;28;20861;-65
2023/08/13 01:26:18;;;;;;;5.83;2.73;;;15.70;99.90;;;;;;5005663;28;20218;-65
2023/08/13 01:28:53;;;;;;;7.13;2.70;;;15.60;99.90;;;;;;5005506;28;20230;-65
2023/08/13 01:31:27;;;;;;;9.93;3.33;;;15.60;99.90;;;;;;5007804;28;20235;-65
2023/08/13 01:33:59;;;;;;;7.53;2.80;;;15.60;99.90;;;;;;4999832;28;20200;-64
2023/08/13 01:36:28;;;;;;;10.20;3.50;;;15.60;99.90;;;;;;5009362;28;20193;-65
2023/08/13 01:38:59;;;;;;;6.37;3.20;;;15.60;99.90;;;;;;5005857;28;20762;-65
2023/08/13 01:41:35;;;;;;;10.27;3.10;;;15.60;99.90;;;;;;5004414;28;20223;-65
2023/08/13 01:44:04;;;;;;;7.87;3.03;;;15.60;99.90;;;;;;5004956;28;20227;-65
2023/08/13 01:46:32;;;;;;;9.20;3.10;;;15.60;99.90;;;;;;5007782;28;20279;-65
2023/08/13 01:49:00;;;;;;;8.27;3.10;;;15.70;99.90;;;;;;5005566;28;20202;-65
2023/08/13 01:51:29;;;;;;;8.67;3.10;;;15.70;99.90;;;;;;5007671;28;20204;-65
2023/08/13 01:53:59;;;;;;;14.10;3.43;;;15.70;99.90;;;;;;5007687;28;20249;-65
2023/08/13 01:56:27;;;;;;;9.13;3.23;;;15.70;99.90;;;;;;5006477;28;20223;-66
2023/08/13 01:58:55;;;;;;;9.03;3.37;;;15.70;99.90;;;;;;5010351;28;20225;-65
2023/08/13 02:01:24;;;;;;;4.60;2.87;;;15.70;99.90;;;;;;5006441;28;20636;-65
2023/08/13 02:03:52;;;;;;;8.63;3.27;;;15.70;99.90;;;;;;5008365;28;20197;-65
2023/08/13 02:06:20;;;;;;;5.23;2.87;;;15.80;99.90;;;;;;5009733;28;20218;-65
2023/08/13 02:08:48;;;;;;;8.43;3.40;;;15.80;99.90;;;;;;5012131;28;20233;-65
2023/08/13 02:11:21;;;;;;;12.90;3.20;;;15.80;99.90;;;;;;4993462;28;20233;-65
2023/08/13 02:13:50;;;;;;;8.33;2.87;;;15.90;99.90;;;;;;4997074;28;20232;-67
2023/08/13 02:16:21;;;;;;;11.03;3.47;;;15.90;99.90;;;;;;5008772;28;20221;-66
2023/08/13 02:18:56;;;;;;;9.10;3.33;;;16.00;99.90;;;;;;5012578;28;20199;-66
2023/08/13 02:21:28;;;;;;;6.40;3.00;;;16.00;99.90;;;;;;5005651;28;20241;-66
2023/08/13 02:23:57;;;;;;;7.57;3.10;;;16.10;99.90;;;;;;5003226;28;20715;-65
2023/08/13 02:26:27;;;;;;;10.70;3.20;;;16.10;99.90;;;;;;5008407;28;20228;-66
2023/08/13 02:28:55;;;;;;;9.50;3.43;;;16.20;99.90;;;;;;5004483;28;20266;-66
2023/08/13 02:31:24;;;;;;;10.50;3.50;;;16.20;99.90;;;;;;5005843;28;20332;-65
2023/08/13 02:33:52;;;;;;;13.97;3.70;;;16.20;99.90;;;;;;5005804;28;20199;-65
2023/08/13 02:36:20;;;;;;;12.23;3.17;;;16.30;99.90;;;;;;5007182;28;20218;-65
2023/08/13 02:38:49;;;;;;;10.37;3.17;;;16.20;99.90;;;;;;5006253;28;20235;-65
2023/08/13 02:41:17;;;;;;;9.73;2.97;;;16.20;99.90;;;;;;5013575;28;20279;-65
2023/08/13 02:43:54;;;;;;;11.17;3.40;;;16.20;99.90;;;;;;5010408;28;20306;-65
2023/08/13 02:46:42;;;;;;;7.07;3.10;;;16.20;99.90;;;;;;5008947;28;20308;-65
2023/08/13 02:49:11;;;;;;;7.10;2.83;;;16.20;99.90;;;;;;5004533;28;20225;-65
2023/08/13 02:51:39;;;;;;;10.90;3.40;;;16.10;99.90;;;;;;5006190;28;20485;-65
2023/08/13 02:54:07;;;;;;;8.50;3.10;;;16.10;99.90;;;;;;5006497;28;20487;-65
2023/08/13 02:56:36;;;;;;;8.17;2.97;;;16.10;99.90;;;;;;5011946;28;20236;-66
2023/08/13 02:59:05;;;;;;;12.77;3.97;;;16.10;99.90;;;;;;5007801;28;20536;-66
2023/08/13 03:01:34;;;;;;;6.17;3.03;;;16.00;99.90;;;;;;5011505;28;20218;-65
2023/08/13 03:04:03;;;;;;;7.20;2.90;;;16.00;99.90;;;;;;4991402;28;20248;-65
2023/08/13 03:06:31;;;;;;;6.87;2.70;;;16.00;99.90;;;;;;5012576;28;20224;-65
2023/08/13 03:08:59;;;;;;;12.00;3.70;;;16.00;99.90;;;;;;4994375;28;20258;-65
2023/08/13 03:11:28;;;;;;;12.70;3.80;;;16.00;99.90;;;;;;5005830;28;20582;-65
2023/08/13 03:13:56;;;;;;;8.17;3.30;;;15.90;99.90;;;;;;5009516;28;20241;-65
2023/08/13 03:16:26;;;;;;;14.20;3.20;;;15.90;99.90;;;;;;5005568;28;20606;-65
2023/08/13 03:18:54;;;;;;;6.97;3.20;;;15.90;99.90;;;;;;5010421;28;20198;-64
2023/08/13 03:21:23;;;;;;;15.77;3.60;;;15.80;99.90;;;;;;5007073;28;20287;-66
2023/08/13 03:23:51;;;;;;;13.27;3.37;;;15.80;99.90;;;;;;5008917;28;20249;-65
2023/08/13 03:26:20;;;;;;;11.93;3.17;;;15.80;99.90;;;;;;4989576;28;20595;-65
2023/08/13 03:28:48;;;;;;;8.40;3.50;;;15.80;99.90;;;;;;5008451;28;20229;-65
2023/08/13 03:31:16;;;;;;;6.47;3.23;;;15.80;99.90;;;;;;5007658;28;20266;-65
2023/08/13 03:33:46;;;;;;;6.17;2.97;;;15.80;99.90;;;;;;5008008;28;20604;-65
2023/08/13 03:36:14;;;;;;;8.83;3.40;;;15.80;99.90;;;;;;5007068;28;20245;-66
2023/08/13 03:38:43;;;;;;;5.97;3.00;;;15.80;99.90;;;;;;5012838;28;20679;-67
2023/08/13 03:41:11;;;;;;;7.07;2.93;;;15.80;99.90;;;;;;5010840;28;20339;-65
2023/08/13 03:43:40;;;;;;;8.13;3.23;;;15.80;99.90;;;;;;5010201;28;20234;-66
2023/08/13 03:46:08;;;;;;;5.67;3.10;;;15.80;99.90;;;;;;5012313;28;20646;-65
2023/08/13 03:48:37;;;;;;;6.60;3.07;;;15.80;99.90;;;;;;5007401;28;20198;-65
2023/08/13 03:51:07;;;;;;;14.50;3.47;;;15.70;99.90;;;;;;5009451;28;20228;-65
2023/08/13 03:53:35;;;;;;;9.33;3.40;;;15.70;99.90;;;;;;5007389;28;20249;-65
2023/08/13 03:56:06;;;;;;;17.10;3.50;;;15.70;99.90;;;;;;5008494;28;20219;-65
2023/08/13 03:58:35;;;;;;;6.27;3.03;;;15.60;99.90;;;;;;5008031;28;20259;-65
2023/08/13 04:01:08;;;;;;;7.97;3.17;;;15.60;99.90;;;;;;5005631;28;20205;-64
2023/08/13 04:03:36;;;;;;;9.87;3.40;;;15.50;99.90;;;;;;5006304;28;20852;-65
2023/08/13 04:06:06;;;;;;;9.67;3.10;;;15.50;99.90;;;;;;5006189;28;20326;-65
2023/08/13 04:08:35;;;;;;;9.90;3.40;;;15.40;99.90;;;;;;5009752;28;20233;-65
2023/08/13 04:11:03;;;;;;;14.90;3.57;;;15.40;99.90;;;;;;5006119;28;20246;-65
2023/08/13 04:13:32;;;;;;;6.87;3.30;;;15.40;99.90;;;;;;5008989;28;20753;-65
2023/08/13 04:16:00;;;;;;;7.13;3.20;;;15.30;99.90;;;;;;5001036;28;20187;-64
2023/08/13 04:18:28;;;;;;;8.67;3.50;;;15.30;99.90;;;;;;5010889;28;20201;-65
2023/08/13 04:20:57;;;;;;;6.73;3.03;;;15.30;99.90;;;;;;5007808;28;20310;-65
2023/08/13 04:23:26;;;;;;;8.80;3.33;;;15.30;99.90;;;;;;5010477;28;20306;-65
2023/08/13 04:25:54;;;;;;;10.67;4.07;;;15.30;99.90;;;;;;5005584;28;20737;-65
2023/08/13 04:28:23;;;;;;;6.50;3.47;;;15.30;99.90;;;;;;5003874;28;20244;-65
2023/08/13 04:30:51;;;;;;;11.87;3.83;;;15.30;99.90;;;;;;5006137;28;20248;-65
2023/08/13 04:33:20;;;;;;;6.93;3.10;;;15.30;99.90;;;;;;5002288;28;20218;-65
2023/08/13 04:35:53;;;;;;;7.63;3.67;;;15.30;99.90;;;;;;5009306;28;20277;-65
2023/08/13 04:38:21;;;;;;;10.00;3.53;;;15.30;99.90;;;;;;5001520;28;20220;-66
2023/08/13 04:40:51;;;;;;;12.43;3.63;;;15.30;99.90;;;;;;4981419;28;20232;-65
2023/08/13 04:43:20;;;;;;;6.77;3.40;;;15.20;99.90;;;;;;4993046;28;20624;-65
2023/08/13 04:45:48;;;;;;;6.27;3.50;;;15.20;99.90;;;;;;5006844;28;20199;-65
2023/08/13 04:48:18;;;;;;;10.80;3.50;;;15.20;99.90;;;;;;5006301;28;20295;-66
2023/08/13 04:50:46;;;;;;;8.83;3.73;;;15.20;99.90;;;;;;5003213;28;20590;-66
2023/08/13 04:53:15;;;;;;;8.77;3.30;;;15.10;99.90;;;;;;5007832;28;20229;-65
2023/08/13 04:55:43;;;;;;;8.00;3.60;;;15.10;99.90;;;;;;5002221;28;20230;-65
2023/08/13 04:58:12;;;;;;;8.33;3.30;;;15.10;99.90;;;;;;5005856;28;20194;-65
2023/08/13 05:00:41;;;;;;;8.90;3.50;;;15.10;99.90;;;;;;5003610;28;20191;-65
2023/08/13 05:03:09;;;;;;;6.73;3.47;;;15.10;99.90;;;;;;4999989;28;20781;-65
2023/08/13 05:05:37;;;;;;;10.03;3.50;;;15.10;99.90;;;;;;5007477;28;20218;-65
2023/08/13 05:08:06;;;;;;;10.17;3.57;;;15.20;99.90;;;;;;4993275;28;20698;-65
2023/08/13 05:10:35;;;;;;;7.90;3.20;;;15.30;99.90;;;;;;4985136;28;20229;-65
2023/08/13 05:13:04;;;;;;;9.17;3.57;;;15.30;99.90;;;;;;4997033;28;20194;-65
2023/08/13 05:15:34;;;;;;;10.43;3.87;;;15.40;99.90;;;;;;4987487;28;20278;-66
2023/08/13 05:18:02;;;;;;;9.80;3.60;;;15.40;99.90;;;;;;4987964;28;20222;-65
2023/08/13 05:20:31;;;;;;;10.33;3.50;;;15.50;99.90;;;;;;5004857;28;20716;-66
2023/08/13 05:22:59;;;;;;;11.53;3.80;;;15.50;99.90;;;;;;4997834;28;20254;-65
2023/08/13 05:25:28;;;;;;;14.33;3.37;;;15.50;99.90;;;;;;5003390;28;20224;-65
2023/08/13 05:27:56;;;;;;;8.60;3.30;;;15.60;99.90;;;;;;5001735;28;20288;-65
2023/08/13 05:30:25;;;;;;;7.53;3.30;;;15.60;99.90;;;;;;5007655;28;20703;-65
2023/08/13 05:32:54;;;;;;;10.33;3.87;;;15.60;99.90;;;;;;5011175;28;20320;-65
2023/08/13 05:35:23;;;;;;;7.77;3.33;;;15.60;99.90;;;;;;5002852;28;20225;-65
2023/08/13 05:37:51;;;;;;;11.63;3.80;;;15.70;99.90;;;;;;5007812;28;20232;-65
2023/08/13 05:40:20;;;;;;;9.43;3.50;;;15.80;99.90;;;;;;5004682;28;20233;-65
2023/08/13 05:42:48;;;;;;;6.07;3.43;;;15.80;99.90;;;;;;5001641;28;20204;-65
2023/08/13 05:45:17;;;;;;;8.13;3.20;;;15.90;99.90;;;;;;4987363;28;21306;-65
2023/08/13 05:47:46;;;;;;;9.20;3.57;;;16.00;99.90;;;;;;5004083;28;20228;-65
2023/08/13 05:50:15;;;;;;;7.40;3.43;;;16.10;99.90;;;;;;5006847;28;20217;-65
2023/08/13 05:52:44;;;;;;;7.40;3.10;;;16.10;99.90;;;;;;4990232;28;20230;-65
2023/08/13 05:55:12;;;;;;;5.53;3.40;;;16.10;99.90;;;;;;4986622;28;20289;-65
2023/08/13 05:57:40;;;;;;;6.93;3.20;;;16.20;99.90;;;;;;5002391;28;20212;-65
2023/08/13 06:00:11;;;;;;;11.07;3.07;;;16.20;99.90;;;;;;5006431;28;20219;-65
2023/08/13 06:02:39;;;;;;;8.47;3.50;;;16.30;99.90;;;;;;5000903;28;20260;-65
2023/08/13 06:05:08;;;;;;;12.10;3.80;;;16.30;99.90;;;;;;4998829;28;20226;-65
2023/08/13 06:07:38;;;;;;;10.30;3.60;;;16.30;99.90;;;;;;5003682;28;20226;-65
2023/08/13 06:10:06;;;;;;;11.90;3.67;;;16.40;99.90;;;;;;5006102;28;20225;-65
2023/08/13 06:12:35;;;;;;;6.60;3.13;;;16.40;99.90;;;;;;4996864;28;20332;-66
2023/08/13 06:15:04;;;;;;;11.90;3.33;;;16.50;99.90;;;;;;5006461;28;20227;-66
2023/08/13 06:17:33;;;;;;;9.47;3.17;;;16.60;99.90;;;;;;4996318;28;20684;-65
2023/08/13 06:20:01;;;;;;;11.63;3.07;;;16.60;99.90;;;;;;5008048;28;20228;-66
2023/08/13 06:22:29;;;;;;;11.17;3.20;;;16.80;99.90;;;;;;5004600;28;20226;-65
2023/08/13 06:24:59;;;;;;;7.73;3.00;;;16.90;99.90;;;;;;4988128;28;20197;-65
2023/08/13 06:27:27;;;;;;;11.73;3.60;;;16.90;99.90;;;;;;5005111;28;20198;-66
2023/08/13 06:29:56;;;;;;;8.80;3.20;;;17.00;99.90;;;;;;4985721;28;20219;-65
2023/08/13 06:32:38;;;;;;;11.97;3.20;;;17.10;99.90;;;;;;5004157;28;20235;-65
2023/08/13 06:35:06;;;;;;;9.40;2.90;;;17.20;99.90;;;;;;5005014;28;20226;-65
2023/08/13 06:37:35;;;;;;;7.33;3.30;;;17.30;99.90;;;;;;5004081;28;20226;-65
2023/08/13 06:40:19;;;;;;;5.77;3.10;;;17.30;99.90;;;;;;5003183;28;20580;-65
2023/08/13 06:42:47;;;;;;;6.37;2.83;;;17.40;99.90;;;;;;5004661;28;20197;-65
2023/08/13 06:45:15;;;;;;;8.63;2.90;;;17.50;99.90;;;;;;5003161;28;20218;-66
2023/08/13 06:47:44;;;;;;;13.10;3.10;;;17.50;99.90;;;;;;5002754;28;20218;-65
2023/08/13 06:50:12;;;;;;;7.90;3.13;;;17.60;99.90;;;;;;5006101;28;20810;-65
2023/08/13 06:52:40;;;;;;;11.40;3.17;;;17.60;99.90;;;;;;5002697;28;20251;-65
2023/08/13 06:55:09;;;;;;;11.10;3.40;;;17.70;99.90;;;;;;5004797;28;20229;-65
2023/08/13 06:57:39;;;;;;;9.30;3.40;;;17.80;99.90;;;;;;5007224;28;20210;-66
2023/08/13 07:00:10;;;;;;;11.87;3.17;;;17.90;99.90;;;;;;5005695;28;20227;-66
2023/08/13 07:02:38;;;;;;;8.67;3.10;;;18.00;99.90;;;;;;5010737;28;20616;-66
2023/08/13 07:05:09;;;;;;;10.17;3.10;;;18.10;99.90;;;;;;5005224;28;20253;-65
2023/08/13 07:07:37;;;;;;;7.50;2.87;;;18.10;99.90;;;;;;5007711;28;20222;-65
2023/08/13 07:10:08;;;;;;;8.90;3.20;;;18.20;99.90;;;;;;5012985;28;20677;-65
2023/08/13 07:12:36;;;;;;;6.03;3.07;;;18.20;99.90;;;;;;5005351;28;20234;-65
2023/08/13 07:15:07;;;;;;;6.53;2.77;;;18.30;99.90;;;;;;5005514;28;20214;-65
2023/08/13 07:17:37;;;;;;;8.23;3.00;;;18.40;99.90;;;;;;5006238;28;20697;-66
2023/08/13 07:20:09;;;;;;;10.30;3.50;;;18.40;99.90;;;;;;5011093;28;20221;-66
2023/08/13 07:22:38;;;;;;;6.87;2.80;;;18.40;99.90;;;;;;5010009;28;20580;-66
2023/08/13 07:25:07;;;;;;;5.63;2.83;;;18.50;99.90;;;;;;4987123;28;20597;-66
2023/08/13 07:27:35;;;;;;;5.13;2.80;;;18.60;99.90;;;;;;5006146;28;20189;-66
2023/08/13 07:30:07;;;;;;;7.00;2.83;;;18.60;99.90;;;;;;5009886;28;20269;-66
2023/08/13 07:32:36;;;;;;;10.30;3.30;;;18.70;99.90;;;;;;5006663;28;20222;-66
2023/08/13 07:35:06;;;;;;;12.77;2.70;;;18.80;99.90;;;;;;5005654;28;20222;-66
2023/08/13 07:37:35;;;;;;;5.93;2.40;;;18.90;99.90;;;;;;5001255;28;20221;-66
2023/08/13 07:40:07;;;;;;;12.23;3.00;;;19.00;99.90;;;;;;5008569;28;20194;-66
2023/08/13 07:42:37;;;;;;;11.60;3.10;;;19.00;99.90;;;;;;5003230;28;20194;-66
2023/08/13 07:45:11;;;;;;;7.70;2.97;;;19.00;99.90;;;;;;5003847;28;20300;-66
2023/08/13 07:47:40;;;;;;;8.50;3.07;;;19.10;99.90;;;;;;4986175;28;20611;-65
2023/08/13 07:50:11;;;;;;;7.00;2.83;;;19.20;99.90;;;;;;5011371;28;20269;-65
2023/08/13 07:52:42;;;;;;;8.00;2.70;;;19.40;97.60;;;;;;5008543;28;20763;-66
2023/08/13 07:55:10;;;;;;;11.20;3.27;;;19.50;99.60;;;;;;5003287;28;20186;-66
2023/08/13 07:57:39;;;;;;;10.47;2.73;;;19.60;95.40;;;;;;5013205;28;20201;-66
2023/08/13 08:00:12;;;;;;;7.07;2.80;;;19.70;97.00;;;;;;5006924;28;20280;-66
2023/08/13 08:02:41;;;;;;;10.67;3.37;;;19.90;94.10;;;;;;5000980;28;20306;-66
2023/08/13 08:05:10;;;;;;;9.13;3.00;;;20.10;74.80;;;;;;5007694;28;20589;-66
2023/08/13 08:07:38;;;;;;;11.43;3.20;;;20.30;83.30;;;;;;5005316;28;20222;-67
2023/08/13 08:10:07;;;;;;;11.40;3.00;;;20.40;62.90;;;;;;5004764;28;20227;-66
2023/08/13 08:12:36;;;;;;;7.40;2.80;;;20.40;71.40;;;;;;5004292;28;20218;-66
2023/08/13 08:15:05;;;;;;;6.87;2.50;;;20.40;67.80;;;;;;5006275;28;20214;-66
2023/08/13 08:17:35;;;;;;;11.47;2.67;;;20.50;68.30;;;;;;5001742;28;20250;-66
2023/08/13 08:20:04;;;;;;;7.70;3.70;;;20.70;60.70;;;;;;5007822;28;20218;-66
2023/08/13 08:22:33;;;;;;;5.00;2.60;;;20.70;66.80;;;;;;5007605;28;20237;-67
2023/08/13 08:25:01;;;;;;;13.23;2.90;;;20.80;65.40;;;;;;5006986;28;20201;-65
2023/08/13 08:27:29;;;;;;;5.73;2.53;;;20.90;62.30;;;;;;5008668;28;20295;-64
2023/08/13 08:29:58;;;;;;;5.30;2.50;;;21.10;52.50;;;;;;5006395;28;20301;-65
2023/08/13 08:32:27;;;;;;;7.10;2.63;;;21.10;50.30;;;;;;5000376;28;20230;-65
2023/08/13 08:34:57;;;;;;;6.73;2.90;;;21.30;49.20;;;;;;5004778;28;20218;-65
2023/08/13 08:37:25;;;;;;;8.37;2.90;;;21.30;1.00;;;;;;5004026;28;20227;-65
2023/08/13 08:39:54;;;;;;;6.77;2.60;;;21.40;1.00;;;;;;4998637;28;20388;-65
2023/08/13 08:42:22;;;;;;;5.10;2.40;;;21.40;1.00;;;;;;5005037;28;20248;-65
2023/08/13 08:44:50;;;;;;;7.27;2.63;;;21.70;1.00;;;;;;5002518;28;20264;-65
2023/08/13 08:47:21;;;;;;;6.80;2.93;;;22.10;1.00;;;;;;5007604;28;20224;-65
2023/08/13 08:49:51;;;;;;;8.10;2.70;;;22.60;1.00;;;;;;4992734;28;20338;-66
2023/08/13 08:52:20;;;;;;;7.27;2.60;;;22.80;1.00;;;;;;5004257;28;20234;-65
2023/08/13 08:54:49;;;;;;;5.83;2.90;;;22.90;1.00;;;;;;5008221;28;20191;-66
2023/08/13 08:57:18;;;;;;;6.27;2.57;;;23.10;1.00;;;;;;5003454;28;20689;-66
2023/08/13 08:59:46;;;;;;;4.93;2.60;;;23.50;1.00;;;;;;5007382;28;20294;-66
2023/08/13 09:02:14;;;;;;;7.53;2.67;;;23.60;1.00;;;;;;4984815;28;20222;-64
2023/08/13 09:04:44;;;;;;;8.27;2.60;;;23.50;1.00;;;;;;5000329;28;20292;-65
2023/08/13 09:07:12;;;;;;;6.63;2.23;;;23.60;1.00;;;;;;5008726;28;20205;-65
2023/08/13 09:09:44;;;;;;;6.25;2.67;;;23.90;1.00;;;;;;4993123;28;20637;-65
2023/08/13 09:12:12;;;;;;;6.50;2.30;;;24.70;1.00;;;;;;5003653;28;20236;-66
2023/08/13 09:14:41;;;;;;;11.07;2.90;;;25.00;1.00;;;;;;5006594;28;20215;-66
2023/08/13 09:17:12;;;;;;;8.20;2.60;;;25.00;1.00;;;;;;5005021;28;20328;-65
2023/08/13 09:19:41;;;;;;;7.03;2.28;;;25.30;1.00;;;;;;5011415;28;20594;-65
2023/08/13 09:22:10;;;;;;;5.70;2.67;;;25.80;1.00;;;;;;4987417;28;20195;-65
2023/08/13 09:24:41;;;;;;;5.45;2.30;;;25.80;99.90;;;;;;5006872;28;20186;-65
2023/08/13 09:27:11;;;;;;;7.78;2.75;;;25.40;99.90;;;;;;4997358;28;20217;-65
2023/08/13 09:29:40;;;;;;;7.97;2.78;;;24.90;99.90;;;;;;5000239;28;20299;-65
2023/08/13 09:32:08;;;;;;;6.78;2.72;;;24.80;99.90;;;;;;4999652;28;20224;-65
2023/08/13 09:34:37;;;;;;;4.18;2.10;;;24.80;99.90;;;;;;5004939;28;20732;-65
2023/08/13 09:37:05;;;;;;;3.97;2.35;;;25.20;99.90;;;;;;5006210;28;20698;-65
2023/08/13 09:39:34;;;;;;;6.55;2.65;;;25.60;99.90;;;;;;4999935;28;20192;-65
2023/08/13 09:42:07;;;;;;;5.30;2.60;;;25.50;99.90;;;;;;5007508;28;20317;-65
2023/08/13 09:44:37;;;;;;;3.78;2.15;;;25.50;99.90;;;;;;4993603;28;20228;-64
2023/08/13 09:47:10;;;;;;;7.50;2.55;;;25.50;99.90;;;;;;4993170;28;20311;-65
2023/08/13 09:49:40;;;;;;;6.25;2.60;;;26.00;99.90;;;;;;5001205;28;20229;-65
2023/08/13 09:52:09;;;;;;;5.25;2.50;;;26.40;99.90;;;;;;5007509;28;20207;-66
2023/08/13 09:54:47;;;;;;;4.88;2.40;;;26.90;99.90;;;;;;4992772;28;20225;-65
2023/08/13 09:57:17;;;;;;;4.43;2.40;;;27.20;99.90;;;;;;5004867;28;20252;-65
2023/08/13 09:59:48;;;;;;;8.02;2.70;;;27.20;99.90;;;;;;5002967;28;20312;-65
2023/08/13 10:02:18;;;;;;;7.38;2.30;;;27.50;99.90;;;;;;5007799;28;20226;-65
2023/08/13 10:04:47;;;;;;;5.93;2.40;;;27.50;99.90;;;;;;5012142;28;20360;-65
2023/08/13 10:07:16;;;;;;;7.85;2.53;;;27.40;99.90;;;;;;5012445;28;20279;-65
2023/08/13 10:09:46;;;;;;;7.53;2.72;;;27.60;99.90;;;;;;5001309;28;20248;-65
2023/08/13 10:12:23;;;;;;;6.25;2.47;;;27.80;99.90;;;;;;5007153;28;20349;-65
2023/08/13 10:14:53;;;;;;;8.20;2.13;;;27.10;99.90;;;;;;5004298;28;20797;-65
2023/08/13 10:17:23;;;;;;;9.25;3.50;;;26.50;99.90;;;;;;5009813;28;20685;-65
2023/08/13 10:19:55;;;;;;;6.68;2.63;;;26.10;99.90;;;;;;4993060;28;20252;-64
2023/08/13 10:22:33;;;;;;;4.53;2.50;;;26.00;99.90;;;;;;4989820;28;20221;-65
2023/08/13 10:25:03;;;;;;;8.73;3.03;;;26.50;99.90;;;;;;4999132;28;20267;-65
2023/08/13 10:27:37;;;;;;;6.70;2.80;;;26.80;99.90;;;;;;5012616;28;20289;-65
2023/08/13 10:30:09;;;;;;;4.65;2.47;;;26.90;99.90;;;;;;5010458;28;20283;-66
2023/08/13 10:32:40;;;;;;;5.75;2.47;;;27.10;99.90;;;;;;5007467;28;20226;-66
2023/08/13 10:35:34;;;;;;;8.93;2.72;;;26.70;99.90;;;;;;5015112;28;20227;-65
2023/08/13 10:38:04;;;;;;;6.65;2.55;;;25.50;99.90;;;;;;4989663;28;20216;-65
2023/08/13 10:40:33;;;;;;;5.67;2.20;;;24.90;99.90;;;;;;5015473;28;20256;-66
2023/08/13 10:43:03;;;;;;;5.77;2.30;;;24.50;99.90;;;;;;5009643;28;20317;-65
2023/08/13 10:45:35;;;;;;;4.20;2.60;;;24.20;99.90;;;;;;4994902;28;20218;-66
2023/08/13 10:48:05;;;;;;;5.07;2.57;;;24.40;99.90;;;;;;5010141;28;20226;-65
2023/08/13 10:50:36;;;;;;;9.13;2.47;;;24.40;99.90;;;;;;5012442;28;20222;-65
2023/08/13 10:53:07;;;;;;;9.90;2.67;;;24.00;99.90;;;;;;5014390;28;20237;-66
2023/08/13 10:55:38;;;;;;;5.93;2.40;;;24.00;99.90;;;;;;5012068;28;20220;-65
2023/08/13 10:58:07;;;;;;;8.73;2.70;;;24.20;99.90;;;;;;5008987;28;20215;-66
2023/08/13 11:00:44;;;;;;;6.82;2.97;;;25.30;99.90;;;;;;4996289;28;20719;-66
2023/08/13 11:03:19;;;;;;;7.90;2.70;;;26.60;99.90;;;;;;5011864;28;20224;-66
2023/08/13 11:05:48;;;;;;;5.55;2.60;;;27.40;99.90;;;;;;5009704;28;20572;-66
2023/08/13 11:08:18;;;;;;;5.40;2.28;;;27.40;99.90;;;;;;5015012;28;20204;-65
2023/08/13 11:10:54;;;;;;;6.50;2.35;;;26.90;99.90;;;;;;5014468;28;20216;-66
2023/08/13 11:13:22;;;;;;;3.70;2.30;;;26.30;99.90;;;;;;5003070;28;20295;-66
2023/08/13 11:15:54;;;;;;;6.43;2.30;;;25.80;99.90;;;;;;5005490;28;20567;-66
2023/08/13 11:18:23;;;;;;;6.25;2.22;;;25.60;99.90;;;;;;5007854;28;20701;-66
2023/08/13 11:20:52;;;;;;;8.45;2.60;;;25.30;99.90;;;;;;5009424;28;20272;-66
2023/08/13 11:23:22;;;;;;;4.43;2.40;;;25.30;99.90;;;;;;4990934;28;20251;-66
2023/08/13 11:25:51;;;;;;;9.20;2.70;;;26.00;99.90;;;;;;5013647;28;20255;-66
2023/08/13 11:28:20;;;;;;;7.55;2.17;;;26.40;99.90;;;;;;5012492;28;20220;-66
2023/08/13 11:30:51;;;;;;;10.98;2.58;;;26.60;99.90;;;;;;5010670;28;20619;-66
2023/08/13 11:33:20;;;;;;;6.95;2.20;;;27.00;99.90;;;;;;5001179;28;20226;-66
2023/08/13 11:36:27;;;;;;;7.88;2.40;;;27.20;99.90;;;;;;5006383;28;20313;-66
2023/08/13 11:38:56;;;;;;;6.10;2.20;;;26.70;99.90;;;;;;4999146;28;20726;-66
2023/08/13 11:41:24;;;;;;;8.52;2.15;;;26.50;99.90;;;;;;5009480;28;20247;-66
2023/08/13 11:43:54;;;;;;;3.78;2.13;;;26.50;99.90;;;;;;4993800;28;20238;-66
2023/08/13 11:46:24;;;;;;;3.03;2.22;;;26.70;99.90;;;;;;5011082;28;20192;-66
2023/08/13 11:48:54;;;;;;;5.00;2.13;;;27.00;99.90;;;;;;5013214;28;20204;-66
2023/08/13 11:51:24;;;;;;;6.40;2.08;;;27.30;99.90;;;;;;5001475;28;20328;-66
2023/08/13 11:53:53;;;;;;;2.90;2.00;;;27.60;99.90;;;;;;4998478;28;20236;-65
2023/08/13 11:56:21;;;;;;;4.90;2.10;;;27.50;99.90;;;;;;5009336;28;20235;-65
2023/08/13 11:59:12;;;;;;;4.97;2.00;;;27.50;99.90;;;;;;5005503;28;20646;-65
2023/08/13 12:01:42;;;;;;;7.55;2.13;;;27.20;99.90;;;;;;5009303;28;20231;-65
2023/08/13 12:04:10;;;;;;;5.97;2.08;;;26.90;99.90;;;;;;5012141;28;20222;-65
2023/08/13 12:06:39;;;;;;;5.28;2.10;;;26.50;99.90;;;;;;5013047;28;20222;-65
2023/08/13 12:09:07;;;;;;;6.13;2.20;;;26.00;99.90;;;;;;5008920;28;20232;-64
2023/08/13 12:11:35;;;;;;;7.30;2.03;;;25.90;99.90;;;;;;5008648;28;20349;-65
2023/08/13 12:14:08;;;;;;;8.27;2.23;;;25.80;99.90;;;;;;5011264;28;20222;-64
2023/08/13 12:16:36;;;;;;;6.23;2.00;;;25.60;99.90;;;;;;5013185;28;20268;-65
2023/08/13 12:19:07;;;;;;;4.63;2.07;;;25.70;99.90;;;;;;4995298;28;20204;-65
2023/08/13 12:21:36;;;;;;;6.10;2.10;;;25.50;99.90;;;;;;5013620;28;20317;-65
2023/08/13 12:24:06;;;;;;;6.47;2.17;;;25.30;99.90;;;;;;5010997;28;20225;-65
2023/08/13 12:26:34;;;;;;;4.20;1.83;;;25.20;99.90;;;;;;5002683;28;20318;-65
2023/08/13 12:29:03;;;;;;;4.70;2.00;;;25.00;99.90;;;;;;5007167;28;20688;-66
2023/08/13 12:31:31;;;;;;;5.70;2.10;;;25.00;99.90;;;;;;5002370;28;20203;-65
2023/08/13 12:34:00;;;;;;;7.63;2.20;;;24.90;99.90;;;;;;5000860;28;20195;-65
2023/08/13 12:36:29;;;;;;;7.37;1.90;;;24.90;99.90;;;;;;5010791;28;20600;-65
2023/08/13 12:38:58;;;;;;;6.27;2.60;;;24.80;99.90;;;;;;5009245;28;20608;-65
2023/08/13 12:41:26;;;;;;;3.57;2.43;;;24.60;99.90;;;;;;5006569;28;20305;-65
2023/08/13 12:44:08;;;;;;;4.83;2.37;;;24.20;99.90;;;;;;5003083;28;20234;-65
2023/08/13 12:46:36;;;;;;;3.27;2.30;;;23.80;99.90;;;;;;5002303;28;20590;-65
2023/08/13 12:49:05;;;;;;;4.60;2.17;;;23.50;99.90;;;;;;5005369;28;20694;-65
2023/08/13 12:51:35;;;;;;;8.97;2.00;;;23.20;99.90;;;;;;4986696;28;20228;-65
2023/08/13 12:54:03;;;;;;;4.10;2.00;;;23.00;99.90;;;;;;5013436;28;20225;-65
2023/08/13 12:56:32;;;;;;;3.90;1.83;;;22.90;99.90;;;;;;5007739;28;21563;-66
2023/08/13 12:59:00;;;;;;;3.10;1.87;;;23.00;99.90;;;;;;5006424;28;20712;-65